• Join FlightAware (Why Join?)
  • Login
  • US Flag 
07:46PM EST


 

Airport Tracker/Info


-or-


 

Live Flight TrackerFlight Track Log ✈ RPA3228 ✈ 10-May-2013 ✈ KDCA - KBTV

Flight Track Log - Related Links

Times and Time Zones

All times are in EDT time to prevent confusion due to time zone crossing. See the RPA3228 flight status page for this flight to view local times or setup timezone preferences in your user account.

Time Position Orientation Groundspeed Altitude Reporting Facility
EDT Latitude Longitude Course Direction KTS MPH feet Rate Location/Type
10:39AM 38.8833 -77.0500 61° Northeast 166 191 1,400  Level Potomac TRACON
10:41AM 38.9648 -76.6888 67° East  Level FlightAware Approximate
10:41AM 39.0056 -77.1489 328° Northwest 224 258 6,900  Level Washington Center
10:42AM 39.0121 -76.5757 57° Northeast  Level FlightAware Approximate
10:42AM 39.0336 -77.0533 69° East 187 215 9,700  Level Washington Center
10:43AM 39.0560 -76.4599 63° Northeast  Level FlightAware Approximate
10:43AM 39.0475 -76.9439 81° East 248 285 11,600  Level Washington Center
10:44AM 39.1039 -76.3465 61° Northeast  Level FlightAware Approximate
10:44AM 39.0656 -76.8242 79° East 287 330 13,700  Level Washington Center
10:45AM 39.0833 -76.7014 79° East 330 380 15,500 1,860 Climbing Washington Center
10:46AM 39.1011 -76.5706 80° East 360 414 17,500 1,500 Climbing Washington Center
10:47AM 39.1189 -76.4369 80° East 372 428 18,500 1,020 Climbing Washington Center
10:48AM 39.1364 -76.3194 79° East 388 447 19,600 1,260 Climbing Washington Center
10:49AM 39.1622 -76.1539 79° East 420 483 21,100 1,320 Climbing Washington Center
10:50AM 39.1794 -76.0014 82° East 427 491 22,300 1,200 Climbing Washington Center
10:51AM 39.2131 -75.8542 74° East 427 491 23,500 1,260 Climbing Washington Center
10:52AM 39.2967 -75.7444 45° Northeast 415 478 24,800 1,200 Climbing Washington Center
10:53AM 39.3864 -75.6319 44° Northeast 421 484 26,000 1,080 Climbing Washington Center
10:54AM 39.4739 -75.5164 46° Northeast 433 498 27,000 480 Climbing Washington Center
10:55AM 39.5614 -75.4058 44° Northeast 433 498 27,000  Level Washington Center
10:57AM 39.7181 -75.1917 46° Northeast 425 489 27,000  Level New York Center
10:58AM 39.7886 -75.0881 48° Northeast 431 496 27,000  Level New York Center
10:59AM 39.8764 -74.9661 47° Northeast 436 502 27,000  Level New York Center
11:00AM 39.9575 -74.8519 47° Northeast 437 503 27,000  Level New York Center
11:01AM 40.0589 -74.7547 36° Northeast 432 497 27,000  Level New York Center
11:02AM 40.1594 -74.6708 33° Northeast 432 497 27,000  Level New York Center
11:03AM 40.2583 -74.5786 35° Northeast 432 497 27,000  Level New York Center
11:04AM 40.3719 -74.4814 33° Northeast 437 503 27,000  Level New York Center
11:05AM 40.4728 -74.3942 33° Northeast 437 503 27,000  Level New York Center
11:06AM 40.6206 -74.2639 34° Northeast 457 526 27,000  Level Boston Center
11:07AM 40.7325 -74.1711 32° Northeast 438 504 27,000  Level Boston Center
11:08AM 40.8358 -74.0833 33° Northeast 438 504 27,000  Level Boston Center
11:09AM 40.9372 -73.9925 34° Northeast 438 504 27,000  Level Boston Center
11:10AM 41.0364 -73.9039 34° Northeast 438 504 27,000  Level Boston Center
11:11AM 41.1394 -73.8181 32° Northeast 438 504 27,000  Level Boston Center
11:12AM 41.2564 -73.8042 North 409 471 27,000  Level Boston Center
11:13AM 41.3708 -73.8094 358° North 409 471 27,000  Level Boston Center
11:14AM 41.4878 -73.7981 North 409 471 27,000  Level Boston Center
11:15AM 41.6047 -73.7728 North 409 471 27,000  Level Boston Center
11:16AM 41.7239 -73.7503 North 414 476 27,000  Level Boston Center
11:17AM 41.8367 -73.7275 North 414 476 27,000  Level Boston Center
11:18AM 41.9536 -73.7047 North 414 476 27,000  Level Boston Center
11:19AM 42.0747 -73.6736 11° North 421 484 27,000  Level Boston Center
11:20AM 42.1939 -73.6478 North 431 496 27,000  Level Boston Center
11:21AM 42.3067 -73.6219 10° North 426 490 27,000  Level Boston Center
11:22AM 42.4236 -73.6044 North 426 490 27,000  Level Boston Center
11:23AM 42.5406 -73.5814 North 426 490 27,000  Level Boston Center
11:24AM 42.6597 -73.5553 North 426 490 27,000  Level Boston Center
11:25AM 42.7767 -73.5292 North 426 490 27,000  Level Boston Center
11:26AM 42.8872 -73.5056 North 426 490 27,000 -300 Level Boston Center
11:27AM 43.0083 -73.4764 10° North 426 490 26,400 -1,200 Descending Boston Center
11:28AM 43.1169 -73.4528 North 419 482 24,600 -1,260 Descending Boston Center
11:29AM 43.2233 -73.4317 North 395 455 23,900 -660 Descending Boston Center
11:30AM 43.3278 -73.4078 North 387 445 23,300 -1,500 Descending Boston Center
11:31AM 43.4303 -73.3836 10° North 382 440 21,000 -2,340 Descending Boston Center
11:32AM 43.5306 -73.3592 10° North 371 427 18,700 -2,280 Descending Boston Center
11:33AM 43.6286 -73.3408 North 361 415 16,500 -2,220 Descending Boston Center
11:34AM 43.7267 -73.3219 North 356 410 14,300 -2,220 Descending Boston Center
11:35AM 43.8247 -73.2975 10° North 356 410 12,100 -1,680 Descending Boston Center
11:36AM 43.9167 -73.2789 North 351 404 11,000 -600 Descending Boston Center
11:37AM 44.0083 -73.2714 North 346 398 11,000 -300 Level Boston Center
11:38AM 44.0936 -73.2986 347° North 317 365 10,400 -1,440 Descending Boston Center
11:39AM 44.1706 -73.3228 347° North 293 337 8,200 -2,160 Descending Boston Center
11:40AM 44.2453 -73.3500 345° North 276 318 6,100 -1,920 Descending Boston Center
11:41AM 44.3158 -73.3772 345° North 265 305 4,400 -1,080 Descending Boston Center
11:42AM 44.3844 -73.4044 344° North 255 293 4,000 -240 Descending Boston Center
11:43AM 44.4447 -73.4286 344° North 238 274 4,000  Level Boston Center
11:44AM 44.5047 -73.4531 344° North 226 260 4,000 -480 Level Boston Center
11:45AM 44.5531 -73.4100 32° Northeast 195 224 3,100 -840 Descending Boston Center
11:46AM 44.5744 -73.3522 63° Northeast 164 189 2,400 -480 Descending Boston Center
11:47AM 44.5542 -73.2878 114° Southeast 164 189 2,200 -240 Descending Boston Center